sensor_id;sensor_type;location;lat;lon;timestamp;P1;durP1;ratioP1;P2;durP2;ratioP2
22922;SDS011;11627;51.322;22.816;2022-08-01T00:00:13;12.30;;;7.30;;
22922;SDS011;11627;51.322;22.816;2022-08-01T00:02:39;10.48;;;7.03;;
22922;SDS011;11627;51.322;22.816;2022-08-01T00:05:05;11.85;;;6.00;;
22922;SDS011;11627;51.322;22.816;2022-08-01T00:07:36;9.48;;;5.05;;
22922;SDS011;11627;51.322;22.816;2022-08-01T00:10:06;8.60;;;4.85;;
22922;SDS011;11627;51.322;22.816;2022-08-01T00:12:34;11.18;;;4.68;;
22922;SDS011;11627;51.322;22.816;2022-08-01T00:15:00;6.80;;;4.70;;
22922;SDS011;11627;51.322;22.816;2022-08-01T00:17:26;5.80;;;4.72;;
22922;SDS011;11627;51.322;22.816;2022-08-01T00:19:51;10.52;;;4.80;;
22922;SDS011;11627;51.322;22.816;2022-08-01T00:22:17;9.82;;;5.18;;
22922;SDS011;11627;51.322;22.816;2022-08-01T00:24:43;7.07;;;4.40;;
22922;SDS011;11627;51.322;22.816;2022-08-01T00:27:09;7.82;;;4.45;;
22922;SDS011;11627;51.322;22.816;2022-08-01T00:29:34;8.65;;;5.20;;
22922;SDS011;11627;51.322;22.816;2022-08-01T00:32:00;8.77;;;5.35;;
22922;SDS011;11627;51.322;22.816;2022-08-01T00:34:26;8.60;;;5.13;;
22922;SDS011;11627;51.322;22.816;2022-08-01T00:36:51;8.35;;;5.40;;
22922;SDS011;11627;51.322;22.816;2022-08-01T00:39:17;12.82;;;5.57;;
22922;SDS011;11627;51.322;22.816;2022-08-01T00:41:42;8.82;;;5.30;;
22922;SDS011;11627;51.322;22.816;2022-08-01T00:44:08;7.32;;;4.97;;
22922;SDS011;11627;51.322;22.816;2022-08-01T00:46:34;8.00;;;5.47;;
22922;SDS011;11627;51.322;22.816;2022-08-01T00:49:00;10.13;;;5.47;;
22922;SDS011;11627;51.322;22.816;2022-08-01T00:51:26;11.40;;;5.53;;
22922;SDS011;11627;51.322;22.816;2022-08-01T00:53:52;10.82;;;6.15;;
22922;SDS011;11627;51.322;22.816;2022-08-01T00:56:19;9.90;;;5.47;;
22922;SDS011;11627;51.322;22.816;2022-08-01T00:58:47;12.85;;;6.75;;
22922;SDS011;11627;51.322;22.816;2022-08-01T01:01:13;9.80;;;6.20;;
22922;SDS011;11627;51.322;22.816;2022-08-01T01:03:38;10.77;;;6.50;;
22922;SDS011;11627;51.322;22.816;2022-08-01T01:12:07;8.98;;;5.30;;
22922;SDS011;11627;51.322;22.816;2022-08-01T01:17:28;10.30;;;5.43;;
22922;SDS011;11627;51.322;22.816;2022-08-01T01:20:02;12.02;;;6.35;;
22922;SDS011;11627;51.322;22.816;2022-08-01T01:22:45;10.35;;;6.28;;
22922;SDS011;11627;51.322;22.816;2022-08-01T01:25:55;13.75;;;6.68;;
22922;SDS011;11627;51.322;22.816;2022-08-01T01:31:23;13.43;;;6.75;;
22922;SDS011;11627;51.322;22.816;2022-08-01T01:33:51;9.82;;;6.65;;
22922;SDS011;11627;51.322;22.816;2022-08-01T01:36:19;9.20;;;6.22;;
22922;SDS011;11627;51.322;22.816;2022-08-01T01:38:46;11.27;;;6.32;;
22922;SDS011;11627;51.322;22.816;2022-08-01T01:41:14;12.45;;;6.20;;
22922;SDS011;11627;51.322;22.816;2022-08-01T01:43:42;11.25;;;7.28;;
22922;SDS011;11627;51.322;22.816;2022-08-01T01:46:10;12.02;;;6.80;;
22922;SDS011;11627;51.322;22.816;2022-08-01T01:48:37;10.77;;;6.63;;
22922;SDS011;11627;51.322;22.816;2022-08-01T01:51:04;9.43;;;6.95;;
22922;SDS011;11627;51.322;22.816;2022-08-01T01:53:32;11.15;;;7.07;;
22922;SDS011;11627;51.322;22.816;2022-08-01T01:56:00;12.35;;;6.72;;
22922;SDS011;11627;51.322;22.816;2022-08-01T01:58:27;9.48;;;6.65;;
22922;SDS011;11627;51.322;22.816;2022-08-01T02:00:57;11.30;;;7.28;;
22922;SDS011;11627;51.322;22.816;2022-08-01T02:03:25;11.45;;;7.45;;
22922;SDS011;11627;51.322;22.816;2022-08-01T02:05:51;10.60;;;7.22;;
22922;SDS011;11627;51.322;22.816;2022-08-01T02:08:19;9.23;;;6.45;;
22922;SDS011;11627;51.322;22.816;2022-08-01T02:10:48;8.63;;;5.65;;
22922;SDS011;11627;51.322;22.816;2022-08-01T02:13:36;9.77;;;5.18;;
22922;SDS011;11627;51.322;22.816;2022-08-01T02:16:05;10.45;;;5.40;;
22922;SDS011;11627;51.322;22.816;2022-08-01T02:18:32;9.15;;;4.80;;
22922;SDS011;11627;51.322;22.816;2022-08-01T02:20:58;9.27;;;4.90;;
22922;SDS011;11627;51.322;22.816;2022-08-01T02:23:27;7.13;;;4.97;;
22922;SDS011;11627;51.322;22.816;2022-08-01T02:25:57;6.65;;;4.25;;
22922;SDS011;11627;51.322;22.816;2022-08-01T02:28:28;7.82;;;5.38;;
22922;SDS011;11627;51.322;22.816;2022-08-01T02:31:02;8.10;;;4.20;;
22922;SDS011;11627;51.322;22.816;2022-08-01T02:33:34;9.68;;;4.28;;
22922;SDS011;11627;51.322;22.816;2022-08-01T02:36:03;7.50;;;3.83;;
22922;SDS011;11627;51.322;22.816;2022-08-01T02:38:31;7.55;;;4.20;;
22922;SDS011;11627;51.322;22.816;2022-08-01T02:41:04;5.65;;;3.78;;
22922;SDS011;11627;51.322;22.816;2022-08-01T02:43:38;5.72;;;3.63;;
22922;SDS011;11627;51.322;22.816;2022-08-01T02:46:09;5.60;;;3.58;;
22922;SDS011;11627;51.322;22.816;2022-08-01T02:48:41;10.32;;;3.40;;
22922;SDS011;11627;51.322;22.816;2022-08-01T02:51:08;6.32;;;3.15;;
22922;SDS011;11627;51.322;22.816;2022-08-01T02:53:37;4.50;;;3.58;;
22922;SDS011;11627;51.322;22.816;2022-08-01T02:56:06;4.28;;;2.97;;
22922;SDS011;11627;51.322;22.816;2022-08-01T02:58:33;3.70;;;2.70;;
22922;SDS011;11627;51.322;22.816;2022-08-01T03:01:02;6.22;;;3.20;;
22922;SDS011;11627;51.322;22.816;2022-08-01T03:03:30;6.05;;;3.85;;
22922;SDS011;11627;51.322;22.816;2022-08-01T03:05:57;4.68;;;4.00;;
22922;SDS011;11627;51.322;22.816;2022-08-01T03:08:24;5.10;;;4.18;;
22922;SDS011;11627;51.322;22.816;2022-08-01T03:10:53;6.07;;;4.35;;
22922;SDS011;11627;51.322;22.816;2022-08-01T03:13:20;8.45;;;4.55;;
22922;SDS011;11627;51.322;22.816;2022-08-01T03:15:48;7.43;;;5.35;;
22922;SDS011;11627;51.322;22.816;2022-08-01T03:18:16;7.90;;;5.53;;
22922;SDS011;11627;51.322;22.816;2022-08-01T03:20:43;6.75;;;4.85;;
22922;SDS011;11627;51.322;22.816;2022-08-01T03:23:11;5.35;;;4.35;;
22922;SDS011;11627;51.322;22.816;2022-08-01T03:25:40;4.72;;;3.75;;
22922;SDS011;11627;51.322;22.816;2022-08-01T03:28:08;4.75;;;3.63;;
22922;SDS011;11627;51.322;22.816;2022-08-01T03:30:37;4.35;;;3.40;;
22922;SDS011;11627;51.322;22.816;2022-08-01T03:33:05;3.95;;;3.33;;
22922;SDS011;11627;51.322;22.816;2022-08-01T03:35:36;4.20;;;3.10;;
22922;SDS011;11627;51.322;22.816;2022-08-01T03:38:05;3.40;;;3.10;;
22922;SDS011;11627;51.322;22.816;2022-08-01T03:40:36;3.72;;;3.22;;
22922;SDS011;11627;51.322;22.816;2022-08-01T03:43:07;3.42;;;3.13;;
22922;SDS011;11627;51.322;22.816;2022-08-01T03:45:46;4.63;;;3.70;;
22922;SDS011;11627;51.322;22.816;2022-08-01T03:48:19;3.75;;;3.42;;
22922;SDS011;11627;51.322;22.816;2022-08-01T03:50:53;5.13;;;3.70;;
22922;SDS011;11627;51.322;22.816;2022-08-01T03:53:20;5.55;;;3.90;;
22922;SDS011;11627;51.322;22.816;2022-08-01T03:55:51;4.00;;;3.50;;
22922;SDS011;11627;51.322;22.816;2022-08-01T03:58:19;5.90;;;4.15;;
22922;SDS011;11627;51.322;22.816;2022-08-01T04:00:45;3.95;;;3.55;;
22922;SDS011;11627;51.322;22.816;2022-08-01T04:03:12;8.98;;;3.90;;
22922;SDS011;11627;51.322;22.816;2022-08-01T04:05:41;3.75;;;3.38;;
22922;SDS011;11627;51.322;22.816;2022-08-01T04:08:08;3.90;;;3.50;;
22922;SDS011;11627;51.322;22.816;2022-08-01T04:10:34;4.50;;;3.60;;
22922;SDS011;11627;51.322;22.816;2022-08-01T04:13:00;3.58;;;3.25;;
22922;SDS011;11627;51.322;22.816;2022-08-01T04:15:25;4.65;;;3.53;;
22922;SDS011;11627;51.322;22.816;2022-08-01T04:17:51;3.97;;;3.22;;
22922;SDS011;11627;51.322;22.816;2022-08-01T04:20:18;4.63;;;3.35;;
22922;SDS011;11627;51.322;22.816;2022-08-01T04:22:45;3.40;;;3.10;;
22922;SDS011;11627;51.322;22.816;2022-08-01T04:25:12;3.47;;;3.00;;
22922;SDS011;11627;51.322;22.816;2022-08-01T04:27:46;3.55;;;2.88;;
22922;SDS011;11627;51.322;22.816;2022-08-01T04:30:14;4.55;;;3.00;;
22922;SDS011;11627;51.322;22.816;2022-08-01T04:32:43;4.30;;;3.13;;
22922;SDS011;11627;51.322;22.816;2022-08-01T04:35:12;4.30;;;2.80;;
22922;SDS011;11627;51.322;22.816;2022-08-01T04:37:44;3.40;;;2.97;;
22922;SDS011;11627;51.322;22.816;2022-08-01T04:40:13;7.13;;;2.60;;
22922;SDS011;11627;51.322;22.816;2022-08-01T04:42:41;6.72;;;2.80;;
22922;SDS011;11627;51.322;22.816;2022-08-01T04:45:07;3.13;;;2.78;;
22922;SDS011;11627;51.322;22.816;2022-08-01T04:47:34;4.30;;;2.88;;
22922;SDS011;11627;51.322;22.816;2022-08-01T04:50:04;2.90;;;2.60;;
22922;SDS011;11627;51.322;22.816;2022-08-01T04:52:32;2.97;;;2.45;;
22922;SDS011;11627;51.322;22.816;2022-08-01T04:55:00;7.38;;;2.60;;
22922;SDS011;11627;51.322;22.816;2022-08-01T04:57:27;4.22;;;3.03;;
22922;SDS011;11627;51.322;22.816;2022-08-01T04:59:52;3.00;;;2.78;;
22922;SDS011;11627;51.322;22.816;2022-08-01T05:02:21;3.95;;;3.28;;
22922;SDS011;11627;51.322;22.816;2022-08-01T05:04:47;3.75;;;3.35;;
22922;SDS011;11627;51.322;22.816;2022-08-01T05:07:14;4.80;;;2.88;;
22922;SDS011;11627;51.322;22.816;2022-08-01T05:09:40;6.30;;;3.30;;
22922;SDS011;11627;51.322;22.816;2022-08-01T05:12:08;7.15;;;3.47;;
22922;SDS011;11627;51.322;22.816;2022-08-01T05:14:35;5.70;;;3.50;;
22922;SDS011;11627;51.322;22.816;2022-08-01T05:17:02;3.50;;;3.15;;
22922;SDS011;11627;51.322;22.816;2022-08-01T05:19:30;6.03;;;3.40;;
22922;SDS011;11627;51.322;22.816;2022-08-01T05:21:57;4.55;;;3.40;;
22922;SDS011;11627;51.322;22.816;2022-08-01T05:24:25;7.03;;;3.58;;
22922;SDS011;11627;51.322;22.816;2022-08-01T05:26:54;6.70;;;3.30;;
22922;SDS011;11627;51.322;22.816;2022-08-01T05:29:20;3.78;;;3.35;;
22922;SDS011;11627;51.322;22.816;2022-08-01T05:31:46;5.88;;;3.40;;
22922;SDS011;11627;51.322;22.816;2022-08-01T05:34:12;6.90;;;3.50;;
22922;SDS011;11627;51.322;22.816;2022-08-01T05:36:39;6.47;;;3.80;;
22922;SDS011;11627;51.322;22.816;2022-08-01T05:39:05;5.45;;;3.25;;
22922;SDS011;11627;51.322;22.816;2022-08-01T05:41:31;7.03;;;3.55;;
22922;SDS011;11627;51.322;22.816;2022-08-01T05:43:56;4.43;;;3.38;;
22922;SDS011;11627;51.322;22.816;2022-08-01T05:46:22;4.65;;;3.03;;
22922;SDS011;11627;51.322;22.816;2022-08-01T05:48:48;5.25;;;3.40;;
22922;SDS011;11627;51.322;22.816;2022-08-01T05:51:14;3.60;;;3.30;;
22922;SDS011;11627;51.322;22.816;2022-08-01T05:53:40;4.25;;;3.65;;
22922;SDS011;11627;51.322;22.816;2022-08-01T05:56:06;8.60;;;3.70;;
22922;SDS011;11627;51.322;22.816;2022-08-01T05:58:31;6.88;;;3.53;;
22922;SDS011;11627;51.322;22.816;2022-08-01T06:00:57;3.95;;;3.10;;
22922;SDS011;11627;51.322;22.816;2022-08-01T06:03:23;3.40;;;3.00;;
22922;SDS011;11627;51.322;22.816;2022-08-01T06:05:51;6.25;;;3.20;;
22922;SDS011;11627;51.322;22.816;2022-08-01T06:08:17;4.93;;;3.25;;
22922;SDS011;11627;51.322;22.816;2022-08-01T06:10:43;3.65;;;3.33;;
22922;SDS011;11627;51.322;22.816;2022-08-01T06:13:08;3.85;;;3.17;;
22922;SDS011;11627;51.322;22.816;2022-08-01T06:15:34;4.53;;;3.05;;
22922;SDS011;11627;51.322;22.816;2022-08-01T06:18:00;4.75;;;2.90;;
22922;SDS011;11627;51.322;22.816;2022-08-01T06:20:26;5.68;;;3.03;;
22922;SDS011;11627;51.322;22.816;2022-08-01T06:22:51;3.67;;;2.97;;
22922;SDS011;11627;51.322;22.816;2022-08-01T06:25:18;4.30;;;3.08;;
22922;SDS011;11627;51.322;22.816;2022-08-01T06:27:44;7.53;;;2.97;;
22922;SDS011;11627;51.322;22.816;2022-08-01T06:30:10;2.78;;;2.58;;
22922;SDS011;11627;51.322;22.816;2022-08-01T06:32:36;3.28;;;2.88;;
22922;SDS011;11627;51.322;22.816;2022-08-01T06:35:02;7.13;;;3.22;;
22922;SDS011;11627;51.322;22.816;2022-08-01T06:37:31;3.20;;;2.70;;
22922;SDS011;11627;51.322;22.816;2022-08-01T06:40:04;4.95;;;3.13;;
22922;SDS011;11627;51.322;22.816;2022-08-01T06:42:32;4.53;;;3.72;;
22922;SDS011;11627;51.322;22.816;2022-08-01T06:45:05;4.20;;;3.20;;
22922;SDS011;11627;51.322;22.816;2022-08-01T06:47:33;4.72;;;3.20;;
22922;SDS011;11627;51.322;22.816;2022-08-01T06:49:59;5.80;;;3.67;;
22922;SDS011;11627;51.322;22.816;2022-08-01T06:52:25;4.78;;;3.58;;
22922;SDS011;11627;51.322;22.816;2022-08-01T06:54:51;7.65;;;3.60;;
22922;SDS011;11627;51.322;22.816;2022-08-01T06:57:17;6.75;;;3.70;;
22922;SDS011;11627;51.322;22.816;2022-08-01T06:59:42;5.95;;;3.80;;
22922;SDS011;11627;51.322;22.816;2022-08-01T07:02:08;4.28;;;3.38;;
22922;SDS011;11627;51.322;22.816;2022-08-01T07:04:34;4.03;;;3.35;;
22922;SDS011;11627;51.322;22.816;2022-08-01T07:07:00;4.45;;;3.75;;
22922;SDS011;11627;51.322;22.816;2022-08-01T07:09:26;6.05;;;4.18;;
22922;SDS011;11627;51.322;22.816;2022-08-01T07:11:53;6.75;;;4.60;;
22922;SDS011;11627;51.322;22.816;2022-08-01T07:14:20;8.02;;;5.20;;
22922;SDS011;11627;51.322;22.816;2022-08-01T07:16:47;7.22;;;5.93;;
22922;SDS011;11627;51.322;22.816;2022-08-01T07:19:12;9.18;;;6.75;;
22922;SDS011;11627;51.322;22.816;2022-08-01T07:21:38;8.13;;;6.70;;
22922;SDS011;11627;51.322;22.816;2022-08-01T07:24:08;9.73;;;7.20;;
22922;SDS011;11627;51.322;22.816;2022-08-01T07:26:37;11.15;;;7.80;;
22922;SDS011;11627;51.322;22.816;2022-08-01T07:29:07;11.48;;;7.70;;
22922;SDS011;11627;51.322;22.816;2022-08-01T07:31:33;9.93;;;7.63;;
22922;SDS011;11627;51.322;22.816;2022-08-01T07:33:59;8.80;;;7.47;;
22922;SDS011;11627;51.322;22.816;2022-08-01T07:36:25;12.68;;;8.23;;
22922;SDS011;11627;51.322;22.816;2022-08-01T07:38:50;11.68;;;7.70;;
22922;SDS011;11627;51.322;22.816;2022-08-01T07:41:17;14.10;;;7.90;;
22922;SDS011;11627;51.322;22.816;2022-08-01T07:43:42;9.52;;;7.53;;
22922;SDS011;11627;51.322;22.816;2022-08-01T07:46:08;7.97;;;7.00;;
22922;SDS011;11627;51.322;22.816;2022-08-01T07:48:34;9.20;;;6.40;;
22922;SDS011;11627;51.322;22.816;2022-08-01T07:50:59;12.30;;;6.20;;
22922;SDS011;11627;51.322;22.816;2022-08-01T07:53:25;7.28;;;6.22;;
22922;SDS011;11627;51.322;22.816;2022-08-01T07:55:51;8.88;;;5.80;;
22922;SDS011;11627;51.322;22.816;2022-08-01T07:58:17;6.38;;;5.20;;
22922;SDS011;11627;51.322;22.816;2022-08-01T08:00:43;6.40;;;5.20;;
22922;SDS011;11627;51.322;22.816;2022-08-01T08:03:09;5.72;;;5.13;;
22922;SDS011;11627;51.322;22.816;2022-08-01T08:05:35;7.60;;;5.05;;
22922;SDS011;11627;51.322;22.816;2022-08-01T08:08:05;6.68;;;5.28;;
22922;SDS011;11627;51.322;22.816;2022-08-01T08:10:32;6.82;;;4.82;;
22922;SDS011;11627;51.322;22.816;2022-08-01T08:12:58;7.07;;;4.85;;
22922;SDS011;11627;51.322;22.816;2022-08-01T08:15:24;6.47;;;4.75;;
22922;SDS011;11627;51.322;22.816;2022-08-01T08:17:49;5.55;;;5.05;;
22922;SDS011;11627;51.322;22.816;2022-08-01T08:20:15;7.53;;;4.60;;
22922;SDS011;11627;51.322;22.816;2022-08-01T08:22:41;5.25;;;4.45;;
22922;SDS011;11627;51.322;22.816;2022-08-01T08:25:07;5.53;;;3.83;;
22922;SDS011;11627;51.322;22.816;2022-08-01T08:27:33;5.43;;;3.53;;
22922;SDS011;11627;51.322;22.816;2022-08-01T08:30:00;5.40;;;3.40;;
22922;SDS011;11627;51.322;22.816;2022-08-01T08:32:26;5.32;;;3.53;;
22922;SDS011;11627;51.322;22.816;2022-08-01T08:34:52;6.40;;;4.30;;
22922;SDS011;11627;51.322;22.816;2022-08-01T08:37:18;6.13;;;3.90;;
22922;SDS011;11627;51.322;22.816;2022-08-01T08:39:44;11.90;;;3.92;;
22922;SDS011;11627;51.322;22.816;2022-08-01T08:42:10;6.00;;;4.07;;
22922;SDS011;11627;51.322;22.816;2022-08-01T08:44:36;7.43;;;3.78;;
22922;SDS011;11627;51.322;22.816;2022-08-01T08:47:05;5.93;;;4.07;;
22922;SDS011;11627;51.322;22.816;2022-08-01T08:49:33;3.97;;;3.58;;
22922;SDS011;11627;51.322;22.816;2022-08-01T08:52:00;5.05;;;4.20;;
22922;SDS011;11627;51.322;22.816;2022-08-01T08:54:28;4.35;;;3.95;;
22922;SDS011;11627;51.322;22.816;2022-08-01T08:56:55;6.32;;;4.10;;
22922;SDS011;11627;51.322;22.816;2022-08-01T08:59:22;4.05;;;3.65;;
22922;SDS011;11627;51.322;22.816;2022-08-01T09:01:51;4.68;;;3.70;;
22922;SDS011;11627;51.322;22.816;2022-08-01T09:04:17;7.00;;;3.60;;
22922;SDS011;11627;51.322;22.816;2022-08-01T09:06:43;4.82;;;3.50;;
22922;SDS011;11627;51.322;22.816;2022-08-01T09:09:09;3.83;;;3.20;;
22922;SDS011;11627;51.322;22.816;2022-08-01T09:11:35;3.05;;;2.80;;
22922;SDS011;11627;51.322;22.816;2022-08-01T09:16:47;3.28;;;3.00;;
22922;SDS011;11627;51.322;22.816;2022-08-01T09:19:41;4.32;;;3.30;;
22922;SDS011;11627;51.322;22.816;2022-08-01T09:22:13;3.45;;;3.00;;
22922;SDS011;11627;51.322;22.816;2022-08-01T09:24:43;3.47;;;2.97;;
22922;SDS011;11627;51.322;22.816;2022-08-01T09:27:32;3.97;;;3.35;;
22922;SDS011;11627;51.322;22.816;2022-08-01T09:30:08;3.70;;;3.25;;
22922;SDS011;11627;51.322;22.816;2022-08-01T09:35:34;3.33;;;2.95;;
22922;SDS011;11627;51.322;22.816;2022-08-01T09:38:21;2.65;;;2.45;;
22922;SDS011;11627;51.322;22.816;2022-08-01T09:40:56;3.55;;;2.60;;
22922;SDS011;11627;51.322;22.816;2022-08-01T09:43:26;4.32;;;2.70;;
22922;SDS011;11627;51.322;22.816;2022-08-01T09:45:54;3.20;;;2.47;;
22922;SDS011;11627;51.322;22.816;2022-08-01T09:48:22;3.05;;;2.85;;
22922;SDS011;11627;51.322;22.816;2022-08-01T09:50:49;3.50;;;3.20;;
22922;SDS011;11627;51.322;22.816;2022-08-01T09:53:17;3.42;;;2.80;;
22922;SDS011;11627;51.322;22.816;2022-08-01T09:55:44;3.67;;;2.70;;
22922;SDS011;11627;51.322;22.816;2022-08-01T09:58:10;2.75;;;2.55;;
22922;SDS011;11627;51.322;22.816;2022-08-01T10:00:36;2.65;;;2.45;;
22922;SDS011;11627;51.322;22.816;2022-08-01T10:03:23;2.75;;;2.30;;
22922;SDS011;11627;51.322;22.816;2022-08-01T10:05:51;2.65;;;2.30;;
22922;SDS011;11627;51.322;22.816;2022-08-01T10:08:22;2.60;;;2.40;;
22922;SDS011;11627;51.322;22.816;2022-08-01T10:11:09;2.85;;;1.90;;
22922;SDS011;11627;51.322;22.816;2022-08-01T10:13:36;2.25;;;2.08;;
22922;SDS011;11627;51.322;22.816;2022-08-01T10:16:02;2.22;;;2.03;;
22922;SDS011;11627;51.322;22.816;2022-08-01T10:18:31;4.00;;;2.30;;
22922;SDS011;11627;51.322;22.816;2022-08-01T10:21:03;2.92;;;2.08;;
22922;SDS011;11627;51.322;22.816;2022-08-01T10:23:33;2.42;;;2.17;;
22922;SDS011;11627;51.322;22.816;2022-08-01T10:26:00;3.38;;;2.60;;
22922;SDS011;11627;51.322;22.816;2022-08-01T10:28:28;2.72;;;2.40;;
22922;SDS011;11627;51.322;22.816;2022-08-01T10:30:56;2.80;;;2.60;;
22922;SDS011;11627;51.322;22.816;2022-08-01T10:33:23;5.30;;;2.55;;
22922;SDS011;11627;51.322;22.816;2022-08-01T10:35:49;3.42;;;2.50;;
22922;SDS011;11627;51.322;22.816;2022-08-01T10:38:16;2.55;;;2.35;;
22922;SDS011;11627;51.322;22.816;2022-08-01T10:40:42;2.63;;;2.40;;
22922;SDS011;11627;51.322;22.816;2022-08-01T10:43:12;2.45;;;2.13;;
22922;SDS011;11627;51.322;22.816;2022-08-01T10:45:39;4.53;;;2.25;;
22922;SDS011;11627;51.322;22.816;2022-08-01T10:51:14;3.83;;;2.50;;
22922;SDS011;11627;51.322;22.816;2022-08-01T10:53:51;3.13;;;2.50;;
22922;SDS011;11627;51.322;22.816;2022-08-01T10:56:18;4.68;;;2.80;;
22922;SDS011;11627;51.322;22.816;2022-08-01T10:58:45;3.10;;;2.35;;
22922;SDS011;11627;51.322;22.816;2022-08-01T11:01:26;4.03;;;2.70;;
22922;SDS011;11627;51.322;22.816;2022-08-01T11:11:56;3.30;;;2.40;;
22922;SDS011;11627;51.322;22.816;2022-08-01T11:14:28;3.10;;;2.08;;
22922;SDS011;11627;51.322;22.816;2022-08-01T11:16:54;2.30;;;2.10;;
22922;SDS011;11627;51.322;22.816;2022-08-01T11:19:21;7.38;;;2.25;;
22922;SDS011;11627;51.322;22.816;2022-08-01T11:29:56;2.17;;;1.70;;
22922;SDS011;11627;51.322;22.816;2022-08-01T11:35:19;2.15;;;1.80;;
22922;SDS011;11627;51.322;22.816;2022-08-01T11:37:52;2.53;;;2.13;;
22922;SDS011;11627;51.322;22.816;2022-08-01T11:40:27;2.67;;;1.70;;
22922;SDS011;11627;51.322;22.816;2022-08-01T11:45:50;2.55;;;1.95;;
22922;SDS011;11627;51.322;22.816;2022-08-01T11:48:21;3.53;;;1.90;;
22922;SDS011;11627;51.322;22.816;2022-08-01T11:50:50;3.15;;;1.90;;
22922;SDS011;11627;51.322;22.816;2022-08-01T11:53:17;2.20;;;1.90;;
22922;SDS011;11627;51.322;22.816;2022-08-01T11:55:46;4.20;;;2.20;;
22922;SDS011;11627;51.322;22.816;2022-08-01T11:58:22;3.67;;;1.98;;
22922;SDS011;11627;51.322;22.816;2022-08-01T12:00:51;2.97;;;2.08;;
22922;SDS011;11627;51.322;22.816;2022-08-01T12:03:28;1.90;;;1.58;;
22922;SDS011;11627;51.322;22.816;2022-08-01T12:05:57;2.55;;;2.08;;
22922;SDS011;11627;51.322;22.816;2022-08-01T12:08:24;2.75;;;1.77;;
22922;SDS011;11627;51.322;22.816;2022-08-01T12:11:01;1.92;;;1.58;;
22922;SDS011;11627;51.322;22.816;2022-08-01T12:13:39;2.63;;;1.70;;
22922;SDS011;11627;51.322;22.816;2022-08-01T12:16:08;1.70;;;1.60;;
22922;SDS011;11627;51.322;22.816;2022-08-01T12:18:42;3.60;;;2.00;;
22922;SDS011;11627;51.322;22.816;2022-08-01T12:21:08;3.60;;;1.80;;
22922;SDS011;11627;51.322;22.816;2022-08-01T12:23:34;2.45;;;1.88;;
22922;SDS011;11627;51.322;22.816;2022-08-01T12:26:00;1.83;;;1.70;;
22922;SDS011;11627;51.322;22.816;2022-08-01T12:28:26;4.10;;;1.73;;
22922;SDS011;11627;51.322;22.816;2022-08-01T12:30:52;8.25;;;1.60;;
22922;SDS011;11627;51.322;22.816;2022-08-01T12:33:18;2.42;;;1.83;;
22922;SDS011;11627;51.322;22.816;2022-08-01T12:35:45;3.70;;;1.63;;
22922;SDS011;11627;51.322;22.816;2022-08-01T12:38:15;1.85;;;1.60;;
22922;SDS011;11627;51.322;22.816;2022-08-01T12:40:45;3.55;;;1.70;;
22922;SDS011;11627;51.322;22.816;2022-08-01T12:43:19;4.50;;;1.67;;
22922;SDS011;11627;51.322;22.816;2022-08-01T12:45:48;2.13;;;1.50;;
22922;SDS011;11627;51.322;22.816;2022-08-01T12:48:15;3.85;;;1.50;;
22922;SDS011;11627;51.322;22.816;2022-08-01T12:50:43;2.13;;;1.60;;
22922;SDS011;11627;51.322;22.816;2022-08-01T12:53:13;1.52;;;1.42;;
22922;SDS011;11627;51.322;22.816;2022-08-01T12:55:46;2.45;;;1.70;;
22922;SDS011;11627;51.322;22.816;2022-08-01T12:58:17;2.45;;;1.58;;
22922;SDS011;11627;51.322;22.816;2022-08-01T13:00:44;4.00;;;1.48;;
22922;SDS011;11627;51.322;22.816;2022-08-01T13:03:13;4.53;;;1.55;;
22922;SDS011;11627;51.322;22.816;2022-08-01T13:05:51;1.98;;;1.70;;
22922;SDS011;11627;51.322;22.816;2022-08-01T13:08:20;3.50;;;1.50;;
22922;SDS011;11627;51.322;22.816;2022-08-01T13:10:59;2.67;;;1.58;;
22922;SDS011;11627;51.322;22.816;2022-08-01T13:13:48;2.65;;;1.52;;
22922;SDS011;11627;51.322;22.816;2022-08-01T13:16:19;2.38;;;1.40;;
22922;SDS011;11627;51.322;22.816;2022-08-01T13:18:49;1.55;;;1.40;;
22922;SDS011;11627;51.322;22.816;2022-08-01T13:29:17;1.40;;;1.30;;
22922;SDS011;11627;51.322;22.816;2022-08-01T13:31:45;2.15;;;1.40;;
22922;SDS011;11627;51.322;22.816;2022-08-01T13:34:12;2.67;;;1.38;;
22922;SDS011;11627;51.322;22.816;2022-08-01T13:36:38;2.25;;;1.50;;
22922;SDS011;11627;51.322;22.816;2022-08-01T13:39:04;3.25;;;1.20;;
22922;SDS011;11627;51.322;22.816;2022-08-01T13:41:49;1.40;;;1.30;;
22922;SDS011;11627;51.322;22.816;2022-08-01T13:44:15;1.75;;;1.35;;
22922;SDS011;11627;51.322;22.816;2022-08-01T13:46:41;1.45;;;1.20;;
22922;SDS011;11627;51.322;22.816;2022-08-01T13:49:08;1.35;;;1.25;;
22922;SDS011;11627;51.322;22.816;2022-08-01T13:51:36;1.08;;;1.00;;
22922;SDS011;11627;51.322;22.816;2022-08-01T13:54:03;1.60;;;1.17;;
22922;SDS011;11627;51.322;22.816;2022-08-01T13:56:30;2.67;;;1.40;;
22922;SDS011;11627;51.322;22.816;2022-08-01T13:58:56;2.60;;;1.08;;
22922;SDS011;11627;51.322;22.816;2022-08-01T14:01:23;1.65;;;1.23;;
22922;SDS011;11627;51.322;22.816;2022-08-01T14:03:49;1.30;;;1.20;;
22922;SDS011;11627;51.322;22.816;2022-08-01T14:06:16;1.40;;;1.30;;
22922;SDS011;11627;51.322;22.816;2022-08-01T14:08:44;1.80;;;1.40;;
22922;SDS011;11627;51.322;22.816;2022-08-01T14:11:10;2.58;;;1.10;;
22922;SDS011;11627;51.322;22.816;2022-08-01T14:13:36;1.45;;;1.13;;
22922;SDS011;11627;51.322;22.816;2022-08-01T14:16:04;1.33;;;1.20;;
22922;SDS011;11627;51.322;22.816;2022-08-01T14:18:30;1.50;;;1.40;;
22922;SDS011;11627;51.322;22.816;2022-08-01T14:20:56;1.30;;;1.20;;
22922;SDS011;11627;51.322;22.816;2022-08-01T14:23:21;1.55;;;1.38;;
22922;SDS011;11627;51.322;22.816;2022-08-01T14:25:48;1.20;;;1.10;;
22922;SDS011;11627;51.322;22.816;2022-08-01T14:28:13;1.35;;;1.25;;
22922;SDS011;11627;51.322;22.816;2022-08-01T14:30:39;1.35;;;1.20;;
22922;SDS011;11627;51.322;22.816;2022-08-01T14:33:07;2.20;;;1.60;;
22922;SDS011;11627;51.322;22.816;2022-08-01T14:35:34;2.30;;;1.20;;
22922;SDS011;11627;51.322;22.816;2022-08-01T14:37:59;1.45;;;1.27;;
22922;SDS011;11627;51.322;22.816;2022-08-01T14:40:25;1.65;;;1.20;;
22922;SDS011;11627;51.322;22.816;2022-08-01T14:42:51;2.00;;;1.20;;
22922;SDS011;11627;51.322;22.816;2022-08-01T14:45:17;1.30;;;1.20;;
22922;SDS011;11627;51.322;22.816;2022-08-01T14:47:42;2.40;;;1.10;;
22922;SDS011;11627;51.322;22.816;2022-08-01T14:50:09;1.42;;;1.25;;
22922;SDS011;11627;51.322;22.816;2022-08-01T14:52:38;1.95;;;1.05;;
22922;SDS011;11627;51.322;22.816;2022-08-01T14:55:05;1.17;;;1.00;;
22922;SDS011;11627;51.322;22.816;2022-08-01T14:57:33;1.63;;;1.27;;
22922;SDS011;11627;51.322;22.816;2022-08-01T15:00:00;3.25;;;1.30;;
22922;SDS011;11627;51.322;22.816;2022-08-01T15:02:26;4.20;;;1.17;;
22922;SDS011;11627;51.322;22.816;2022-08-01T15:04:51;4.95;;;1.30;;
22922;SDS011;11627;51.322;22.816;2022-08-01T15:07:18;1.23;;;1.10;;
22922;SDS011;11627;51.322;22.816;2022-08-01T15:09:44;4.13;;;1.10;;
22922;SDS011;11627;51.322;22.816;2022-08-01T15:12:11;2.28;;;1.20;;
22922;SDS011;11627;51.322;22.816;2022-08-01T15:14:37;3.13;;;1.63;;
22922;SDS011;11627;51.322;22.816;2022-08-01T15:17:23;2.55;;;1.40;;
22922;SDS011;11627;51.322;22.816;2022-08-01T15:19:53;2.75;;;1.27;;
22922;SDS011;11627;51.322;22.816;2022-08-01T15:22:20;1.58;;;1.30;;
22922;SDS011;11627;51.322;22.816;2022-08-01T15:24:47;2.10;;;1.27;;
22922;SDS011;11627;51.322;22.816;2022-08-01T15:27:14;4.30;;;1.17;;
22922;SDS011;11627;51.322;22.816;2022-08-01T15:29:40;2.50;;;1.05;;